Terminal Aerodrome Forecast
Issued by NWS

Home | Current Version | Previous Version | Text Only | Print | Product List | Glossary On
Versions: 1 2 3 4 5 6 7 8 9 10 11 12 13 14 15
000
FTUS43 KMQT 171800 AAA
TAFIWD
TAF AMD
KIWD 171842Z 1719/1818 01009KT P6SM SCT003 BKN009
     FM172300 05004KT P6SM SCT010 BKN025
     FM180200 09003KT P6SM SKC
     FM181300 13006KT P6SM SCT100
      AMD LTD TO CLD VIS AND WIND=

USA.gov is the U.S. government's official web portal to all federal, state and local government web resources and services.